Time;durP1;ratioP1;P1;durP2;ratioP2;P2;SDS_P1;SDS_P2;PMS_P1;PMS_P2;Temp;Humidity;BMP_temperature;BMP_pressure;BME280_temperature;BME280_humidity;BME280_pressure;Samples;Min_cycle;Max_cycle;Signal;HPM_P1;HPM_P2
2024/01/11 00:01:33;;;;;;;22.30;9.55;;;;;;;-4.90;100.00;99917.69;5133327;27;20407;-78
2024/01/11 00:03:58;;;;;;;19.10;8.85;;;;;;;-4.79;100.00;99940.59;5133725;27;20022;-78
2024/01/11 00:06:24;;;;;;;18.42;9.32;;;;;;;-4.68;100.00;99955.44;5134048;27;20102;-77
2024/01/11 00:08:49;;;;;;;19.20;9.30;;;;;;;-4.77;100.00;99930.34;5134864;27;20177;-78
2024/01/11 00:11:15;;;;;;;22.00;10.13;;;;;;;-4.88;100.00;99892.00;5132918;27;20126;-77
2024/01/11 00:13:40;;;;;;;20.40;9.70;;;;;;;-4.39;100.00;99934.25;5127594;27;20019;-77
2024/01/11 00:16:05;;;;;;;14.43;7.43;;;;;;;-4.44;100.00;99895.81;5112413;27;20412;-78
2024/01/11 00:18:31;;;;;;;20.25;9.68;;;;;;;-4.14;100.00;99906.63;5133431;27;20102;-78
2024/01/11 00:20:56;;;;;;;28.67;11.55;;;;;;;-4.24;100.00;99865.63;5133068;27;20469;-77
2024/01/11 00:23:23;;;;;;;20.48;11.05;;;;;;;-4.12;100.00;99872.06;5133069;27;20080;-77
2024/01/11 00:25:48;;;;;;;20.58;10.73;;;;;;;-4.12;100.00;99887.44;5132825;27;20499;-77
2024/01/11 00:28:14;;;;;;;22.13;9.77;;;;;;;-4.08;100.00;99883.00;5133058;27;20039;-76
2024/01/11 00:30:39;;;;;;;18.77;9.98;;;;;;;-4.18;100.00;99859.00;5132829;27;20043;-78
2024/01/11 00:33:06;;;;;;;21.25;9.77;;;;;;;-3.88;100.00;99898.66;5132788;27;20059;-77
2024/01/11 00:35:31;;;;;;;23.67;9.93;;;;;;;-4.03;100.00;99866.69;5133117;27;20088;-77
2024/01/11 00:37:57;;;;;;;20.27;10.13;;;;;;;-3.90;100.00;99883.88;5133079;27;20035;-77
2024/01/11 00:40:22;;;;;;;20.48;9.93;;;;;;;-3.86;100.00;99885.63;5134410;27;20118;-77
2024/01/11 00:42:48;;;;;;;21.42;10.85;;;;;;;-4.06;100.00;99836.84;5133872;27;20458;-77
2024/01/11 00:45:14;;;;;;;20.17;9.98;;;;;;;-3.80;100.00;99879.00;5132401;27;20019;-77
2024/01/11 00:47:39;;;;;;;20.38;10.75;;;;;;;-3.83;100.00;99879.63;5115448;27;20080;-77
2024/01/11 00:50:05;;;;;;;20.38;9.40;;;;;;;-3.90;100.00;99871.19;5132839;27;20433;-77
2024/01/11 00:52:31;;;;;;;21.08;9.88;;;;;;;-3.85;100.00;99864.84;5132167;27;20047;-78
2024/01/11 00:54:56;;;;;;;22.65;10.68;;;;;;;-3.92;100.00;99861.81;5133704;27;20019;-77
2024/01/11 00:57:22;;;;;;;16.65;9.43;;;;;;;-3.79;100.00;99858.19;5105078;27;20027;-77
2024/01/11 00:59:47;;;;;;;17.88;8.82;;;;;;;-3.60;100.00;99877.63;5132641;27;20023;-78
2024/01/11 01:02:12;;;;;;;17.15;9.07;;;;;;;-4.02;100.00;99813.50;5132276;27;20472;-77
2024/01/11 01:04:39;;;;;;;21.23;9.52;;;;;;;-3.94;100.00;99837.03;5134253;27;20396;-78
2024/01/11 01:07:05;;;;;;;20.33;8.98;;;;;;;-3.93;100.00;99860.22;5106622;27;20175;-77
2024/01/11 01:09:31;;;;;;;15.82;8.43;;;;;;;-4.16;100.00;99852.19;5132398;27;20027;-77
2024/01/11 01:11:56;;;;;;;17.40;8.18;;;;;;;-4.58;100.00;99783.44;5132364;27;20038;-77
2024/01/11 01:14:22;;;;;;;17.83;9.52;;;;;;;-4.14;100.00;99841.88;5132122;27;20027;-77
2024/01/11 01:16:47;;;;;;;22.23;9.60;;;;;;;-4.25;100.00;99823.56;5127476;27;20404;-77
2024/01/11 01:19:12;;;;;;;15.43;6.63;;;;;;;-4.12;100.00;99847.78;5125680;27;20068;-77
2024/01/11 01:21:38;;;;;;;19.65;8.95;;;;;;;-3.99;100.00;99864.16;5131896;27;20023;-77
2024/01/11 01:24:04;;;;;;;18.02;8.13;;;;;;;-4.12;100.00;99863.97;5132316;27;20489;-77
2024/01/11 01:26:29;;;;;;;19.23;8.52;;;;;;;-4.56;100.00;99824.38;5131767;27;20071;-77
2024/01/11 01:28:55;;;;;;;14.48;8.10;;;;;;;-4.59;100.00;99845.78;5131606;27;20103;-77
2024/01/11 01:31:21;;;;;;;19.63;7.80;;;;;;;-4.91;100.00;99801.00;5114684;27;20385;-77
2024/01/11 01:33:47;;;;;;;20.23;10.60;;;;;;;-4.54;100.00;99834.84;5132161;27;20114;-78
2024/01/11 01:36:12;;;;;;;15.57;8.77;;;;;;;-4.34;100.00;99833.53;5133394;27;20544;-78
2024/01/11 01:38:38;;;;;;;18.88;9.18;;;;;;;-4.44;100.00;99806.81;5133386;27;20823;-77
2024/01/11 01:41:03;;;;;;;18.17;8.95;;;;;;;-4.12;100.00;99820.78;5127128;27;20147;-77
2024/01/11 01:43:29;;;;;;;19.13;9.35;;;;;;;-4.13;100.00;99799.50;5124818;27;20029;-78
2024/01/11 01:45:55;;;;;;;19.52;8.85;;;;;;;-4.05;100.00;99796.03;5131598;27;20094;-78
2024/01/11 01:48:21;;;;;;;16.17;8.48;;;;;;;-4.23;100.00;99748.53;5119066;27;20032;-77
2024/01/11 01:50:50;;;;;;;20.63;8.13;;;;;;;-3.80;100.00;99822.28;5096559;27;20545;-78
2024/01/11 01:53:21;;;;;;;20.67;8.98;;;;;;;-3.67;100.00;99812.47;5132712;27;20073;-78
2024/01/11 01:55:48;;;;;;;19.70;9.38;;;;;;;-3.98;100.00;99758.59;5131964;27;20054;-78
2024/01/11 01:58:15;;;;;;;19.08;9.45;;;;;;;-3.64;100.00;99805.66;5131436;27;20030;-76
2024/01/11 02:00:41;;;;;;;16.70;7.97;;;;;;;-3.66;100.00;99808.66;5131388;27;20567;-77
2024/01/11 02:03:08;;;;;;;18.95;9.40;;;;;;;-3.49;100.00;99833.00;5131129;27;20122;-77
2024/01/11 02:05:34;;;;;;;13.45;6.53;;;;;;;-3.64;100.00;99802.97;5131559;27;20035;-77
2024/01/11 02:08:03;;;;;;;19.52;9.40;;;;;;;-3.60;100.00;99791.22;5132728;27;20715;-77
2024/01/11 02:10:32;;;;;;;16.45;9.07;;;;;;;-3.37;100.00;99821.56;5131437;27;20038;-78
2024/01/11 02:12:59;;;;;;;22.85;9.18;;;;;;;-3.56;100.00;99792.19;5132264;27;20062;-77
2024/01/11 02:15:24;;;;;;;21.60;10.63;;;;;;;-3.64;100.00;99774.06;5131350;27;20110;-78
2024/01/11 02:17:50;;;;;;;19.88;9.68;;;;;;;-3.62;100.00;99769.16;5130998;27;20125;-77
2024/01/11 02:20:15;;;;;;;24.58;10.55;;;;;;;-3.58;100.00;99786.28;5132713;27;20067;-77
2024/01/11 02:22:46;;;;;;;18.58;9.65;;;;;;;-3.40;100.00;99804.09;5131452;27;20027;-77
2024/01/11 02:25:11;;;;;;;18.55;9.93;;;;;;;-3.55;100.00;99796.44;5119653;27;20019;-77
2024/01/11 02:27:48;;;;;;;23.15;10.35;;;;;;;-3.51;100.00;99794.72;5117511;27;20811;-76
2024/01/11 02:30:13;;;;;;;15.48;9.18;;;;;;;-3.79;100.00;99755.59;5131220;27;20381;-76
2024/01/11 02:32:39;;;;;;;17.83;9.25;;;;;;;-3.73;100.00;99771.34;5131091;27;20494;-77
2024/01/11 02:35:05;;;;;;;17.30;8.10;;;;;;;-3.95;100.00;99736.38;5131233;27;20030;-77
2024/01/11 02:37:31;;;;;;;17.88;8.43;;;;;;;-3.67;100.00;99757.69;5130993;27;20050;-77
2024/01/11 02:39:56;;;;;;;19.25;9.57;;;;;;;-3.69;100.00;99741.81;5133565;27;20106;-76
2024/01/11 02:42:22;;;;;;;17.58;9.23;;;;;;;-3.45;100.00;99776.47;5119931;27;20015;-78
2024/01/11 02:44:47;;;;;;;19.35;10.05;;;;;;;-3.31;100.00;99794.09;5133056;27;20087;-76
2024/01/11 02:47:13;;;;;;;12.73;6.78;;;;;;;-3.47;100.00;99773.28;5129935;27;20092;-78
2024/01/11 02:49:38;;;;;;;13.35;7.25;;;;;;;-3.47;100.00;99774.06;5131927;27;20027;-77
2024/01/11 02:52:04;;;;;;;15.30;7.30;;;;;;;-3.73;100.00;99727.34;5130891;27;20584;-78
2024/01/11 02:54:30;;;;;;;16.20;8.35;;;;;;;-3.70;100.00;99724.00;5132105;27;20035;-77
2024/01/11 02:56:57;;;;;;;17.13;9.05;;;;;;;-3.57;100.00;99760.88;5130426;27;20032;-78
2024/01/11 02:59:23;;;;;;;18.55;9.40;;;;;;;-3.63;100.00;99743.25;5130692;27;20046;-76
2024/01/11 03:01:49;;;;;;;35.42;12.52;;;;;;;-3.35;100.00;99776.94;5129890;27;20123;-78
2024/01/11 03:04:14;;;;;;;25.58;10.07;;;;;;;-3.38;100.00;99772.19;5130566;27;20114;-77
2024/01/11 03:06:40;;;;;;;31.85;11.88;;;;;;;-3.25;100.00;99780.44;5130249;27;20035;-77
2024/01/11 03:09:06;;;;;;;33.67;12.02;;;;;;;-3.73;100.00;99709.22;5130997;27;20063;-77
2024/01/11 03:11:31;;;;;;;33.75;12.80;;;;;;;-3.33;100.00;99772.00;5134371;27;20059;-78
2024/01/11 03:13:57;;;;;;;93.10;26.63;;;;;;;-3.50;100.00;99736.09;5135981;27;20464;-77
2024/01/11 03:16:22;;;;;;;131.32;44.50;;;;;;;-3.24;100.00;99792.81;5134353;27;20030;-77
2024/01/11 03:18:48;;;;;;;76.78;37.83;;;;;;;-3.65;100.00;99729.25;5134159;27;20023;-77
2024/01/11 03:21:13;;;;;;;44.85;24.45;;;;;;;-3.65;100.00;99721.16;5134102;27;20023;-77
2024/01/11 03:23:39;;;;;;;20.35;12.25;;;;;;;-3.53;100.00;99752.94;5134474;27;20031;-77
2024/01/11 03:26:13;;;;;;;15.90;8.82;;;;;;;-3.68;100.00;99724.50;5135279;27;20027;-77
2024/01/11 03:28:38;;;;;;;16.15;8.85;;;;;;;-3.66;100.00;99741.16;5134256;27;20023;-76
2024/01/11 03:31:04;;;;;;;15.73;8.27;;;;;;;-3.59;100.00;99749.59;5133771;27;20071;-76
2024/01/11 03:33:29;;;;;;;14.80;8.13;;;;;;;-3.67;100.00;99717.16;5134360;27;20034;-77
2024/01/11 03:35:55;;;;;;;18.77;8.95;;;;;;;-3.45;100.00;99754.84;5135276;27;20102;-77
2024/01/11 03:38:20;;;;;;;16.63;9.15;;;;;;;-3.86;100.00;99685.09;5134016;27;20576;-78
2024/01/11 03:40:46;;;;;;;18.05;9.48;;;;;;;-3.83;100.00;99712.25;5135332;27;20019;-77
2024/01/11 03:43:11;;;;;;;14.90;7.53;;;;;;;-4.05;100.00;99665.72;5133953;27;20108;-77
2024/01/11 03:45:37;;;;;;;17.17;8.98;;;;;;;-3.56;100.00;99745.47;5133484;27;20027;-77
2024/01/11 03:48:02;;;;;;;18.73;8.40;;;;;;;-3.57;100.00;99747.38;5134155;27;20477;-77
2024/01/11 03:50:28;;;;;;;19.77;10.52;;;;;;;-3.60;100.00;99744.50;5130631;27;20032;-76
2024/01/11 03:52:53;;;;;;;17.80;10.07;;;;;;;-3.74;100.00;99720.38;5122931;27;20035;-78
2024/01/11 03:55:19;;;;;;;19.35;9.13;;;;;;;-4.07;100.00;99684.91;5134995;27;20553;-78
2024/01/11 03:57:44;;;;;;;16.15;8.35;;;;;;;-4.02;100.00;99727.13;5134988;27;20046;-77
2024/01/11 04:00:10;;;;;;;28.23;11.50;;;;;;;-4.03;100.00;99717.44;5133692;27;20038;-77
2024/01/11 04:02:36;;;;;;;35.00;14.65;;;;;;;-4.10;100.00;99713.31;5133843;27;20512;-77
2024/01/11 04:05:01;;;;;;;28.92;11.32;;;;;;;-3.97;100.00;99741.28;5132857;27;20030;-77
2024/01/11 04:07:27;;;;;;;23.23;9.63;;;;;;;-3.86;100.00;99742.56;5133435;27;20083;-76
2024/01/11 04:09:52;;;;;;;18.23;7.88;;;;;;;-4.22;100.00;99675.34;5133373;27;20385;-77
2024/01/11 04:12:18;;;;;;;12.13;6.47;;;;;;;-3.84;100.00;99736.84;5133905;27;20076;-77
2024/01/11 04:14:43;;;;;;;16.02;8.25;;;;;;;-4.02;100.00;99692.06;5133364;27;20480;-77
2024/01/11 04:17:09;;;;;;;25.13;11.35;;;;;;;-3.73;100.00;99727.34;5133505;27;20023;-78
2024/01/11 04:19:34;;;;;;;18.73;9.07;;;;;;;-3.81;100.00;99720.84;5133436;27;20027;-77
2024/01/11 04:21:59;;;;;;;17.67;9.15;;;;;;;-3.78;100.00;99720.19;5133911;27;20551;-77
2024/01/11 04:24:25;;;;;;;15.73;8.27;;;;;;;-4.02;100.00;99702.84;5134210;27;20396;-77
2024/01/11 04:26:50;;;;;;;20.25;10.80;;;;;;;-4.12;100.00;99691.25;5133076;27;20527;-77
2024/01/11 04:29:16;;;;;;;16.48;8.68;;;;;;;-3.91;100.00;99733.81;5132789;27;20027;-77
2024/01/11 04:31:41;;;;;;;22.27;10.32;;;;;;;-3.86;100.00;99731.00;5132937;27;20051;-77
2024/01/11 04:34:07;;;;;;;15.48;8.48;;;;;;;-3.85;100.00;99741.47;5132884;27;20032;-77
2024/01/11 04:36:32;;;;;;;17.42;9.63;;;;;;;-4.08;100.00;99696.00;5132983;27;20824;-77
2024/01/11 04:38:58;;;;;;;23.25;9.90;;;;;;;-3.88;100.00;99731.31;5132970;27;20476;-78
2024/01/11 04:41:23;;;;;;;19.38;10.30;;;;;;;-4.13;100.00;99689.66;5132985;27;20023;-77
2024/01/11 04:43:49;;;;;;;20.48;10.65;;;;;;;-3.98;100.00;99736.22;5133924;27;20027;-77
2024/01/11 04:46:14;;;;;;;16.73;9.23;;;;;;;-3.82;100.00;99753.53;5133944;27;20103;-77
2024/01/11 04:48:40;;;;;;;20.80;10.80;;;;;;;-3.94;100.00;99729.88;5133942;27;20031;-78
2024/01/11 04:51:06;;;;;;;12.93;7.03;;;;;;;-3.90;100.00;99724.63;5134599;27;20042;-76
2024/01/11 04:53:31;;;;;;;17.40;9.25;;;;;;;-4.08;100.00;99690.63;5133560;27;20130;-78
2024/01/11 04:55:57;;;;;;;12.55;7.05;;;;;;;-3.64;100.00;99741.66;5134369;27;20608;-77
2024/01/11 04:58:22;;;;;;;16.40;8.82;;;;;;;-4.27;100.00;99626.94;5132470;27;20035;-77
2024/01/11 05:00:49;;;;;;;18.88;10.43;;;;;;;-3.76;100.00;99704.47;5132614;27;20125;-78
2024/01/11 05:03:14;;;;;;;17.95;8.85;;;;;;;-3.63;100.00;99731.66;5132051;27;20019;-76
2024/01/11 05:05:39;;;;;;;20.40;9.48;;;;;;;-3.82;100.00;99699.56;5132298;27;20395;-76
2024/01/11 05:08:05;;;;;;;14.10;8.45;;;;;;;-3.93;100.00;99682.06;5133451;27;20031;-77
2024/01/11 05:10:30;;;;;;;17.35;9.25;;;;;;;-3.80;100.00;99708.13;5132772;27;20023;-77
2024/01/11 05:12:56;;;;;;;16.50;8.65;;;;;;;-3.72;100.00;99723.53;5132290;27;20030;-78
2024/01/11 05:15:21;;;;;;;18.88;11.30;;;;;;;-3.83;100.00;99708.75;5124585;27;20511;-78
2024/01/11 05:17:47;;;;;;;22.02;11.82;;;;;;;-3.98;100.00;99693.03;5092827;27;20060;-77
2024/01/11 05:20:12;;;;;;;17.70;9.77;;;;;;;-3.95;100.00;99711.28;5132085;27;20027;-77
2024/01/11 05:22:38;;;;;;;18.92;9.55;;;;;;;-3.97;99.40;99708.09;5131780;27;20487;-78
2024/01/11 05:25:04;;;;;;;24.25;11.80;;;;;;;-4.21;100.00;99690.44;5133794;27;20019;-77
2024/01/11 05:27:29;;;;;;;23.75;11.10;;;;;;;-4.28;100.00;99689.34;5132484;27;20023;-77
2024/01/11 05:29:55;;;;;;;22.52;8.40;;;;;;;-4.08;100.00;99728.41;5132462;27;20468;-76
2024/01/11 05:32:20;;;;;;;13.40;7.45;;;;;;;-4.10;100.00;99732.19;5130973;27;20404;-77
2024/01/11 05:34:45;;;;;;;17.17;8.40;;;;;;;-4.33;100.00;99692.94;5131571;27;20084;-76
2024/01/11 05:37:11;;;;;;;17.35;9.70;;;;;;;-4.17;100.00;99707.59;5131821;27;20042;-77
2024/01/11 05:39:36;;;;;;;21.85;11.18;;;;;;;-4.07;100.00;99728.09;5131722;27;20479;-77
2024/01/11 05:42:02;;;;;;;23.15;10.00;;;;;;;-4.31;100.00;99671.84;5131620;27;20022;-77
2024/01/11 05:44:28;;;;;;;13.38;7.60;;;;;;;-4.40;100.00;99668.34;5131846;27;20111;-77
2024/01/11 05:46:53;;;;;;;18.73;8.57;;;;;;;-4.25;100.00;99691.38;5131701;27;20027;-77
2024/01/11 05:49:18;;;;;;;18.70;9.15;;;;;;;-4.11;100.00;99678.56;5131526;27;20511;-77
2024/01/11 05:51:44;;;;;;;21.55;10.63;;;;;;;-3.97;100.00;99684.59;5131730;27;20493;-76
2024/01/11 05:54:09;;;;;;;26.88;12.20;;;;;;;-3.73;100.00;99711.13;5115291;27;20034;-77
2024/01/11 05:56:35;;;;;;;17.48;9.35;;;;;;;-4.05;100.00;99657.63;5126356;27;20031;-77
2024/01/11 05:59:00;;;;;;;27.15;10.77;;;;;;;-4.15;100.00;99651.41;5114167;27;20034;-77
2024/01/11 06:01:26;;;;;;;22.70;10.65;;;;;;;-4.21;100.00;99643.78;5131727;27;20031;-77
2024/01/11 06:03:51;;;;;;;19.23;9.07;;;;;;;-3.81;100.00;99688.44;5131591;27;20023;-76
2024/01/11 06:06:17;;;;;;;22.33;10.52;;;;;;;-3.77;99.63;99692.09;5133450;27;20054;-77
2024/01/11 06:08:43;;;;;;;16.58;9.65;;;;;;;-3.94;98.73;99683.19;5134520;27;20011;-77
2024/01/11 06:11:09;;;;;;;23.60;12.27;;;;;;;-4.00;99.36;99670.97;5124439;27;20043;-77
2024/01/11 06:13:34;;;;;;;19.30;10.23;;;;;;;-3.88;100.00;99673.81;5131618;27;20019;-77
2024/01/11 06:16:00;;;;;;;23.65;10.43;;;;;;;-4.01;100.00;99628.88;5130924;27;20039;-76
2024/01/11 06:18:25;;;;;;;22.77;10.80;;;;;;;-3.89;100.00;99634.44;5124281;27;20055;-78
2024/01/11 06:20:51;;;;;;;21.55;11.27;;;;;;;-3.76;100.00;99647.00;5123589;27;20023;-77
2024/01/11 06:23:16;;;;;;;25.38;12.65;;;;;;;-3.69;100.00;99641.91;5130562;27;20031;-76
2024/01/11 06:25:42;;;;;;;20.35;10.88;;;;;;;-3.43;100.00;99690.47;5130926;27;20492;-77
2024/01/11 06:28:09;;;;;;;17.35;8.95;;;;;;;-3.83;99.39;99641.25;5130630;27;20027;-77
2024/01/11 06:30:35;;;;;;;16.95;9.23;;;;;;;-3.77;98.63;99683.97;5132012;27;20019;-77
2024/01/11 06:33:00;;;;;;;12.32;6.32;;;;;;;-4.28;98.98;99638.84;5130454;27;20034;-77
2024/01/11 06:35:26;;;;;;;22.70;7.45;;;;;;;-4.13;100.00;99664.59;5131909;27;20020;-78
2024/01/11 06:37:51;;;;;;;25.05;11.27;;;;;;;-3.75;100.00;99668.28;5131406;27;20027;-76
2024/01/11 06:40:19;;;;;;;25.17;11.55;;;;;;;-3.33;100.00;99696.38;5130708;27;20067;-77
2024/01/11 06:42:44;;;;;;;26.15;9.43;;;;;;;-3.26;100.00;99662.66;5125271;27;20047;-77
2024/01/11 06:45:10;;;;;;;16.02;9.13;;;;;;;-3.43;100.00;99615.63;5111070;28;20062;-76
2024/01/11 06:47:35;;;;;;;19.48;10.27;;;;;;;-3.30;100.00;99627.38;5129955;28;20443;-77
2024/01/11 06:50:01;;;;;;;16.38;7.97;;;;;;;-2.84;99.95;99675.25;5130704;27;20027;-78
2024/01/11 06:52:26;;;;;;;16.38;7.90;;;;;;;-2.94;99.76;99662.06;5129687;28;20097;-78
2024/01/11 06:54:52;;;;;;;19.45;10.38;;;;;;;-2.62;99.48;99685.81;5130460;27;20076;-77
2024/01/11 06:57:17;;;;;;;21.08;8.98;;;;;;;-2.66;99.05;99665.16;5130208;27;20019;-77
2024/01/11 06:59:43;;;;;;;18.92;10.27;;;;;;;-2.59;98.40;99647.28;5130446;27;20028;-77
2024/01/11 07:02:09;;;;;;;18.85;10.00;;;;;;;-2.65;98.25;99618.84;5130925;27;20019;-77
2024/01/11 07:04:34;;;;;;;21.58;10.63;;;;;;;-2.25;97.28;99662.56;5130345;27;20515;-77
2024/01/11 07:07:00;;;;;;;21.33;11.00;;;;;;;-2.29;96.86;99641.91;5131941;27;20118;-77
2024/01/11 07:09:25;;;;;;;23.17;10.10;;;;;;;-2.33;96.19;99630.91;5130537;27;20540;-77
2024/01/11 07:11:51;;;;;;;20.23;9.93;;;;;;;-2.27;96.66;99609.88;5131622;27;20125;-77
2024/01/11 07:14:16;;;;;;;22.17;9.45;;;;;;;-1.88;95.46;99651.94;5118679;27;20504;-79
2024/01/11 07:16:41;;;;;;;19.40;9.90;;;;;;;-2.16;95.45;99609.16;5124994;27;20028;-79
2024/01/11 07:19:07;;;;;;;19.23;10.00;;;;;;;-1.82;95.27;99647.94;5122167;28;20106;-78
2024/01/11 07:21:32;;;;;;;18.85;10.13;;;;;;;-1.71;94.50;99649.91;5126120;27;20477;-78
2024/01/11 07:23:59;;;;;;;17.27;9.82;;;;;;;-1.79;93.98;99610.13;5121543;28;20023;-78
2024/01/11 07:26:25;;;;;;;16.88;8.82;;;;;;;-1.35;93.49;99668.22;5113332;28;20027;-78
2024/01/11 07:28:51;;;;;;;20.80;10.35;;;;;;;-1.49;94.25;99634.41;5130535;27;20109;-79
2024/01/11 07:31:16;;;;;;;19.23;10.88;;;;;;;-1.75;93.03;99564.97;5111287;28;20115;-79
2024/01/11 07:33:42;;;;;;;18.90;10.13;;;;;;;-1.12;92.33;99646.13;5121805;27;20055;-77
2024/01/11 07:36:09;;;;;;;28.60;12.02;;;;;;;-1.00;92.93;99646.16;5129027;27;20023;-79
2024/01/11 07:38:34;;;;;;;33.90;15.05;;;;;;;-1.00;92.99;99646.97;5109642;28;20487;-78
2024/01/11 07:41:00;;;;;;;36.90;14.82;;;;;;;-0.84;91.22;99645.16;5110799;28;20628;-78
2024/01/11 07:43:26;;;;;;;28.48;11.82;;;;;;;-1.01;89.77;99604.69;5109360;28;20036;-79
2024/01/11 07:45:51;;;;;;;24.17;11.00;;;;;;;-0.85;90.42;99615.69;5109389;28;20035;-77
2024/01/11 07:48:17;;;;;;;27.15;13.65;;;;;;;-0.45;89.96;99668.16;5109446;28;20031;-80
2024/01/11 07:50:42;;;;;;;22.65;11.18;;;;;;;-0.49;89.95;99637.41;5110729;27;20102;-79
2024/01/11 07:53:08;;;;;;;24.42;11.18;;;;;;;-0.53;89.37;99622.13;5112759;28;20092;-78
2024/01/11 07:55:33;;;;;;;20.38;9.43;;;;;;;-0.22;89.93;99657.63;5121265;27;20036;-78
2024/01/11 07:57:59;;;;;;;22.38;10.57;;;;;;;-0.39;89.24;99606.28;5129524;27;20023;-78
2024/01/11 08:00:25;;;;;;;23.27;11.63;;;;;;;0.15;88.79;99642.03;5133704;27;20555;-79
2024/01/11 08:02:50;;;;;;;21.15;10.25;;;;;;;0.21;86.93;99645.31;5130954;27;20058;-80
2024/01/11 08:05:16;;;;;;;21.52;11.02;;;;;;;-0.11;86.18;99590.84;5113397;28;20027;-78
2024/01/11 08:07:44;;;;;;;20.13;10.73;;;;;;;-0.44;86.85;99506.88;5129627;27;20021;-79
2024/01/11 08:10:10;;;;;;;19.90;10.15;;;;;;;-0.04;84.50;99572.03;5133454;27;20047;-79
2024/01/11 08:12:36;;;;;;;17.48;9.40;;;;;;;0.03;84.15;99571.44;5133370;27;20110;-78
2024/01/11 08:15:02;;;;;;;18.10;8.90;;;;;;;0.33;83.92;99623.53;5133466;27;20113;-79
2024/01/11 08:17:27;;;;;;;28.95;13.43;;;;;;;0.10;84.50;99577.09;5132763;27;20110;-78
2024/01/11 08:19:55;;;;;;;29.58;13.15;;;;;;;0.09;83.24;99559.19;5126458;27;20054;-78
2024/01/11 08:22:21;;;;;;;25.40;11.52;;;;;;;0.62;82.00;99628.59;5123163;27;20550;-79
2024/01/11 08:24:47;;;;;;;21.63;10.25;;;;;;;0.44;83.16;99580.31;5132592;27;20019;-80
2024/01/11 08:27:13;;;;;;;21.33;9.95;;;;;;;0.75;81.43;99615.75;5131612;27;20015;-78
2024/01/11 08:29:39;;;;;;;18.77;10.02;;;;;;;0.78;80.32;99621.25;5131669;27;20068;-78
2024/01/11 08:32:05;;;;;;;20.63;9.52;;;;;;;0.54;78.99;99556.16;5120583;27;20035;-79
2024/01/11 08:34:31;;;;;;;22.90;10.20;;;;;;;0.76;79.03;99584.69;5130496;27;20019;-78
2024/01/11 08:36:58;;;;;;;17.60;9.23;;;;;;;0.95;78.45;99603.84;5133153;27;20030;-79
2024/01/11 08:39:23;;;;;;;17.98;8.43;;;;;;;0.78;77.99;99571.53;5134054;27;20019;-79
2024/01/11 08:41:49;;;;;;;20.75;10.07;;;;;;;1.13;78.84;99615.16;5133198;27;20023;-78
2024/01/11 08:44:14;;;;;;;24.15;10.15;;;;;;;0.42;77.63;99471.97;5133904;27;20496;-78
2024/01/11 08:46:40;;;;;;;15.65;8.48;;;;;;;1.00;77.41;99534.75;5134107;27;20130;-79
2024/01/11 08:49:05;;;;;;;17.05;8.80;;;;;;;1.50;78.05;99599.34;5118903;27;20027;-79
2024/01/11 08:51:32;;;;;;;16.05;9.55;;;;;;;1.50;76.77;99591.16;5134074;27;20035;-79
2024/01/11 08:53:58;;;;;;;21.48;10.32;;;;;;;1.57;76.51;99592.09;5132629;27;20026;-79
2024/01/11 08:56:23;;;;;;;27.20;9.95;;;;;;;1.28;76.61;99556.41;5133934;27;20027;-78
2024/01/11 08:58:49;;;;;;;17.45;9.43;;;;;;;1.60;77.08;99588.69;5127111;27;20136;-79
2024/01/11 09:01:15;;;;;;;17.00;10.02;;;;;;;1.86;77.43;99585.38;5123712;27;20092;-78
2024/01/11 09:03:40;;;;;;;14.98;8.27;;;;;;;1.31;76.23;99496.63;5132480;27;20027;-79
2024/01/11 09:06:06;;;;;;;14.85;8.70;;;;;;;1.74;75.84;99528.28;5132691;27;20027;-78
2024/01/11 09:08:32;;;;;;;14.63;8.45;;;;;;;2.09;74.42;99557.41;5133058;27;20015;-78
2024/01/11 09:10:59;;;;;;;18.20;8.90;;;;;;;2.16;73.93;99555.63;5133611;27;20015;-78
2024/01/11 09:13:25;;;;;;;15.88;8.25;;;;;;;2.29;72.40;99559.00;5133475;27;20118;-78
2024/01/11 09:15:52;;;;;;;14.50;8.23;;;;;;;2.05;72.18;99522.69;5119723;27;20027;-78
2024/01/11 09:18:18;;;;;;;24.15;10.27;;;;;;;1.91;70.55;99483.47;5131505;27;20560;-78
2024/01/11 09:20:44;;;;;;;16.42;9.05;;;;;;;2.13;72.14;99512.72;5132205;27;20023;-79
2024/01/11 09:23:09;;;;;;;18.05;9.43;;;;;;;2.25;70.91;99509.81;5131383;27;20025;-79
2024/01/11 09:25:35;;;;;;;17.27;9.25;;;;;;;1.96;70.37;99466.84;5120317;27;20015;-79
2024/01/11 09:28:01;;;;;;;16.45;9.23;;;;;;;1.93;69.58;99454.69;5129139;27;20091;-78
2024/01/11 09:30:28;;;;;;;22.65;10.77;;;;;;;2.45;71.42;99516.84;5131569;27;20023;-78
2024/01/11 09:32:54;;;;;;;21.67;11.23;;;;;;;2.05;69.84;99446.38;5131276;27;20019;-80
2024/01/11 09:35:19;;;;;;;22.35;12.10;;;;;;;2.63;73.23;99510.91;5132373;27;20401;-78
2024/01/11 09:37:46;;;;;;;18.98;9.68;;;;;;;2.45;70.05;99456.03;5132677;27;20023;-79
2024/01/11 09:40:12;;;;;;;17.98;8.80;;;;;;;2.36;67.43;99442.63;5123732;27;20118;-79
2024/01/11 09:42:38;;;;;;;17.73;9.85;;;;;;;2.75;67.87;99499.81;5127322;27;20504;-79
2024/01/11 09:45:18;;;;;;;21.45;10.85;;;;;;;2.71;71.38;99461.53;5122274;27;20015;-78
2024/01/11 09:47:48;;;;;;;17.65;8.75;;;;;;;2.97;69.97;99485.34;5124949;27;20154;-78
2024/01/11 09:50:17;;;;;;;19.77;10.30;;;;;;;2.62;69.45;99417.38;5115299;27;20036;-79
2024/01/11 09:52:47;;;;;;;18.90;8.68;;;;;;;2.95;67.85;99463.09;5104500;27;20077;-79
2024/01/11 09:55:13;;;;;;;12.77;7.20;;;;;;;2.69;66.85;99422.16;5131084;27;20146;-79
2024/01/11 09:57:44;;;;;;;14.52;7.47;;;;;;;2.83;65.08;99423.13;5118884;27;20452;-79
2024/01/11 10:00:13;;;;;;;44.33;25.20;;;;;;;3.16;66.27;99459.88;5131279;27;20419;-80
2024/01/11 10:02:38;;;;;;;16.13;8.93;;;;;;;3.24;67.41;99454.16;5131025;27;20539;-79
2024/01/11 10:05:05;;;;;;;21.83;10.38;;;;;;;3.42;68.08;99442.69;5130707;27;20123;-79
2024/01/11 10:07:32;;;;;;;16.25;7.57;;;;;;;3.38;69.13;99441.84;5131383;27;20101;-80
2024/01/11 10:09:58;;;;;;;15.30;6.15;;;;;;;3.47;70.06;99434.16;5131223;27;20019;-80
2024/01/11 10:12:25;;;;;;;22.42;8.45;;;;;;;3.33;69.47;99390.28;5132184;27;20099;-79
2024/01/11 10:14:53;;;;;;;19.13;7.65;;;;;;;3.32;69.24;99381.31;5123144;27;20032;-80
2024/01/11 10:17:18;;;;;;;23.02;9.27;;;;;;;3.50;68.67;99384.25;5113160;27;20042;-79
2024/01/11 10:19:44;;;;;;;16.95;6.63;;;;;;;3.82;69.85;99415.47;5127676;27;20019;-80
2024/01/11 10:22:15;;;;;;;10.90;5.20;;;;;;;3.38;70.73;99330.66;5131288;27;20095;-79
2024/01/11 10:24:40;;;;;;;9.68;4.78;;;;;;;3.78;72.80;99379.13;5131526;27;20019;-79
2024/01/11 10:27:08;;;;;;;13.70;4.78;;;;;;;3.69;71.78;99354.03;5124653;27;20038;-79
2024/01/11 10:29:36;;;;;;;6.05;3.03;;;;;;;3.81;71.40;99350.25;5128819;27;20019;-82
2024/01/11 10:32:03;;;;;;;6.75;3.80;;;;;;;3.55;70.20;99302.78;5131398;27;20046;-80
2024/01/11 10:34:29;;;;;;;13.48;3.78;;;;;;;3.92;69.41;99346.44;5114322;27;20024;-81
2024/01/11 10:36:54;;;;;;;10.65;3.55;;;;;;;3.34;69.47;99255.31;5112258;28;20034;-81
2024/01/11 10:39:25;;;;;;;6.15;3.42;;;;;;;4.24;71.15;99385.03;5129617;27;20027;-80
2024/01/11 10:41:55;;;;;;;12.43;3.92;;;;;;;3.94;70.91;99324.22;5120101;27;20035;-78
2024/01/11 10:44:22;;;;;;;14.25;4.07;;;;;;;3.79;69.31;99295.19;5105555;28;20028;-80
2024/01/11 10:46:55;;;;;;;10.25;3.50;;;;;;;3.96;70.95;99319.16;5103999;28;20031;-82
2024/01/11 10:49:25;;;;;;;10.40;3.80;;;;;;;4.26;71.89;99355.34;5098472;28;20412;-79
2024/01/11 10:52:02;;;;;;;9.32;3.88;;;;;;;3.94;72.13;99278.53;5111588;28;20043;-81
2024/01/11 10:54:28;;;;;;;6.72;3.53;;;;;;;4.35;70.47;99347.59;5101288;28;20116;-80
2024/01/11 10:56:55;;;;;;;6.20;4.05;;;;;;;4.28;72.34;99306.50;5105227;28;20024;-81
2024/01/11 10:59:25;;;;;;;8.02;4.07;;;;;;;3.94;70.69;99242.97;5091219;28;20043;-81
2024/01/11 11:01:58;;;;;;;11.30;4.40;;;;;;;4.44;70.45;99318.00;5111272;27;20115;-81
2024/01/11 11:04:25;;;;;;;8.07;4.55;;;;;;;3.85;67.28;99237.06;5118495;27;20161;-80
2024/01/11 11:06:55;;;;;;;6.32;4.07;;;;;;;4.50;67.61;99321.16;5117807;27;20024;-81
2024/01/11 11:09:21;;;;;;;8.85;4.57;;;;;;;4.36;67.83;99299.16;5111003;28;20023;-80
2024/01/11 11:11:49;;;;;;;15.65;4.75;;;;;;;4.15;67.05;99244.31;5115167;27;20034;-82
2024/01/11 11:14:15;;;;;;;12.80;5.03;;;;;;;4.32;64.18;99296.41;5114944;27;20511;-81